This is the latest recevied weather packets stored in our database for station/object KD0RIH. If no packets are shown the sender has not sent any weather packets the latest 10 day(s).
| Time | Temp. | Humidity | Pressure | Rain* | Wind** | Luminosity | Snow |
|---|---|---|---|---|---|---|---|
| 1777849923 | 27.22° C | 29% | 1008.7 hPa | 0 mm | - | 241 W/m² | - |
| 1777849619 | 27.78° C | 28% | 1008.8 hPa | 0 mm | - | 125 W/m² | - |
| 1777849316 | 28.33° C | 28% | 1008.7 hPa | 0 mm | - | 241 W/m² | - |
| 1777849014 | 28.33° C | 27% | 1008.9 hPa | 0 mm | - | 231 W/m² | - |
| 1777848714 | 28.89° C | 27% | 1008.8 hPa | 0 mm | - | 274 W/m² | - |
| 1777848411 | 28.89° C | 27% | 1008.9 hPa | 0 mm | - | 248 W/m² | - |
| 1777848109 | 29.44° C | 27% | 1008.7 hPa | 0 mm | - | 374 W/m² | - |
| 1777847807 | 28.89° C | 28% | 1008.8 hPa | 0 mm | - | 294 W/m² | - |
| 1777847503 | 28.89° C | 27% | 1008.9 hPa | 0 mm | - | 312 W/m² | - |
| 1777847200 | 28.89° C | 26% | 1008.9 hPa | 0 mm | - | 452 W/m² | - |
| 1777846898 | 28.33° C | 28% | 1008.7 hPa | 0 mm | - | 360 W/m² | - |
| 1777846596 | 28.89° C | 30% | 1008.7 hPa | 0 mm | - | 210 W/m² | - |
| 1777846293 | 29.44° C | 26% | 1008.8 hPa | 0 mm | - | 215 W/m² | - |
| 1777845990 | 28.89° C | 28% | 1008.8 hPa | 0 mm | - | 538 W/m² | - |
| 1777845686 | 28.33° C | 29% | 1008.9 hPa | 0 mm | - | 402 W/m² | - |
| 1777845384 | 27.78° C | 29% | 1009 hPa | 0 mm | - | 350 W/m² | - |
| 1777845080 | 27.22° C | 29% | 1009 hPa | 0 mm | - | 432 W/m² | - |
| 1777844779 | 27.78° C | 28% | 1008.9 hPa | 0 mm | - | 365 W/m² | - |
| 1777844475 | 27.22° C | 31% | 1009.1 hPa | 0 mm | - | 366 W/m² | - |
| 1777844174 | 26.67° C | 30% | 1008.9 hPa | 0 mm | - | 446 W/m² | - |
| 1777843870 | 26.11° C | 33% | 1009.1 hPa | 0 mm | - | 431 W/m² | - |
| 1777843568 | 26.11° C | 32% | 1009 hPa | 0 mm | - | 360 W/m² | - |
| 1777843265 | 27.22° C | 31% | 1008.9 hPa | 0 mm | - | 351 W/m² | - |
| 1777842962 | 26.67° C | 32% | 1009.5 hPa | 0 mm | - | 542 W/m² | - |
| 1777842657 | 27.78° C | 30% | 1009.4 hPa | 0 mm | - | 481 W/m² | - |
* Rain latest hour (hover to see other rain measurements)
** Current wind speed in m/s (hover to see current wind gust speed)